Time;durP1;ratioP1;P1;durP2;ratioP2;P2;SDS_P1;SDS_P2;PMS_P1;PMS_P2;Temp;Humidity;BMP_temperature;BMP_pressure;BME280_temperature;BME280_humidity;BME280_pressure;Samples;Min_cycle;Max_cycle;Signal;HPM_P1;HPM_P2
2023/12/30 00:00:59;;;;;;;0.57;0.57;;;5.70;99.90;;;;;;5105506;27;20060;-82
2023/12/30 00:03:25;;;;;;;0.50;0.50;;;5.70;99.90;;;;;;5089191;27;20049;-79
2023/12/30 00:05:51;;;;;;;0.98;0.98;;;5.70;99.90;;;;;;5119478;27;20042;-81
2023/12/30 00:08:16;;;;;;;0.50;0.50;;;5.60;99.90;;;;;;5118756;27;20086;-82
2023/12/30 00:10:42;;;;;;;0.50;0.50;;;5.70;99.90;;;;;;5103779;27;20074;-81
2023/12/30 00:13:08;;;;;;;0.50;0.50;;;5.60;99.90;;;;;;5120228;27;20512;-81
2023/12/30 00:15:33;;;;;;;0.60;0.60;;;5.60;99.90;;;;;;5121793;27;20050;-78
2023/12/30 00:17:59;;;;;;;0.60;0.60;;;5.60;99.90;;;;;;5132802;27;20046;-80
2023/12/30 00:20:25;;;;;;;0.60;0.60;;;5.60;99.90;;;;;;5136626;27;20495;-78
2023/12/30 00:22:51;;;;;;;;;;;5.80;99.90;;;;;;5129156;27;20047;-80
2023/12/30 00:25:17;;;;;;;0.40;0.40;;;5.70;99.90;;;;;;5133294;27;19926;-80
2023/12/30 00:27:42;;;;;;;0.60;0.60;;;5.80;99.90;;;;;;5108405;27;20081;-77
2023/12/30 00:30:11;;;;;;;0.60;0.60;;;5.80;99.90;;;;;;5130902;27;20175;-79
2023/12/30 00:32:36;;;;;;;0.50;0.50;;;5.80;99.90;;;;;;5130658;27;20476;-80
2023/12/30 00:35:02;;;;;;;1.23;0.80;;;5.80;99.90;;;;;;5130393;27;20058;-77
2023/12/30 00:37:28;;;;;;;0.50;0.50;;;5.80;99.90;;;;;;5114675;27;20039;-76
2023/12/30 00:39:53;;;;;;;0.70;0.70;;;5.80;99.90;;;;;;5131977;27;20042;-79
2023/12/30 00:42:19;;;;;;;0.50;0.50;;;5.90;99.90;;;;;;5096198;27;20047;-81
2023/12/30 00:44:45;;;;;;;0.57;0.57;;;5.90;99.90;;;;;;5134363;27;20063;-77
2023/12/30 00:47:11;;;;;;;0.55;0.55;;;5.80;99.90;;;;;;5112349;27;20031;-77
2023/12/30 00:49:37;;;;;;;0.57;0.57;;;6.00;99.90;;;;;;5109874;27;20081;-81
2023/12/30 00:52:03;;;;;;;0.50;0.50;;;5.90;99.90;;;;;;5114669;27;20051;-81
2023/12/30 00:54:29;;;;;;;0.60;0.60;;;5.90;99.90;;;;;;5113542;28;20051;-82
2023/12/30 00:56:54;;;;;;;0.57;0.57;;;5.10;99.90;;;;;;5112579;27;20108;-78
2023/12/30 00:59:20;;;;;;;0.50;0.50;;;5.90;99.90;;;;;;5111435;28;20124;-80
2023/12/30 01:01:45;;;;;;;0.50;0.50;;;5.90;99.90;;;;;;5129343;27;20095;-78
2023/12/30 01:04:12;;;;;;;0.50;0.50;;;5.90;99.90;;;;;;5141100;27;20091;-80
2023/12/30 01:06:38;;;;;;;0.60;0.60;;;5.90;99.90;;;;;;5117757;28;20341;-80
2023/12/30 01:09:04;;;;;;;0.60;0.60;;;5.90;99.90;;;;;;5133128;27;20168;-79
2023/12/30 01:11:30;;;;;;;;;;;5.90;99.90;;;;;;5130321;27;20118;-78
2023/12/30 01:13:56;;;;;;;0.55;0.55;;;5.90;99.90;;;;;;5131181;27;20026;-77
2023/12/30 01:16:21;;;;;;;0.40;0.40;;;5.90;99.90;;;;;;5129567;28;20035;-81
2023/12/30 01:18:47;;;;;;;0.50;0.50;;;5.80;99.90;;;;;;5141592;27;20486;-77
2023/12/30 01:21:12;;;;;;;0.60;0.60;;;5.90;99.90;;;;;;5129055;27;20042;-75
2023/12/30 01:23:38;;;;;;;0.60;0.60;;;5.80;99.90;;;;;;5134049;27;20078;-79
2023/12/30 01:26:04;;;;;;;0.50;0.50;;;5.90;99.90;;;;;;5129533;27;20054;-79
2023/12/30 01:28:31;;;;;;;0.60;0.60;;;5.90;99.90;;;;;;5113192;27;20093;-79
2023/12/30 01:30:56;;;;;;;0.75;0.75;;;5.80;99.90;;;;;;5134140;27;20506;-81
2023/12/30 01:33:22;;;;;;;0.50;0.50;;;5.80;99.90;;;;;;5114978;27;20048;-78
2023/12/30 01:35:48;;;;;;;0.50;0.50;;;5.80;99.90;;;;;;5132312;27;20039;-76
2023/12/30 01:38:13;;;;;;;0.60;0.60;;;5.80;99.90;;;;;;5133489;27;20043;-80
2023/12/30 01:40:39;;;;;;;0.60;0.60;;;5.80;99.90;;;;;;5117406;27;20039;-80
2023/12/30 01:43:06;;;;;;;0.55;0.55;;;5.80;99.90;;;;;;5133516;27;20147;-82
2023/12/30 01:45:32;;;;;;;0.50;0.50;;;5.90;99.90;;;;;;5130922;27;20110;-80
2023/12/30 01:47:59;;;;;;;0.50;0.50;;;6.00;99.90;;;;;;5134306;27;20054;-79
2023/12/30 01:50:25;;;;;;;0.50;0.50;;;6.00;99.90;;;;;;5134418;27;20492;-79
2023/12/30 01:52:50;;;;;;;0.60;0.60;;;5.90;99.90;;;;;;5116486;27;20047;-80
2023/12/30 01:55:17;;;;;;;0.40;0.40;;;5.90;99.90;;;;;;5138116;27;20035;-79
2023/12/30 01:57:44;;;;;;;2.15;2.05;;;6.00;99.90;;;;;;5119972;27;20035;-79
2023/12/30 02:00:15;;;;;;;0.60;0.60;;;6.10;99.90;;;;;;5137929;27;20047;-77
2023/12/30 02:02:41;;;;;;;0.55;0.55;;;6.10;99.90;;;;;;5114087;27;20047;-77
2023/12/30 02:05:08;;;;;;;0.60;0.60;;;6.20;99.90;;;;;;5130818;27;20379;-81
2023/12/30 02:07:33;;;;;;;;;;;6.20;99.90;;;;;;5131494;27;20035;-81
2023/12/30 02:09:59;;;;;;;0.50;0.50;;;6.20;99.90;;;;;;5139759;27;20406;-80
2023/12/30 02:12:25;;;;;;;0.43;0.43;;;6.30;99.90;;;;;;5132118;27;20043;-79
2023/12/30 02:14:50;;;;;;;3.80;2.72;;;6.30;99.90;;;;;;5133945;27;20035;-81
2023/12/30 02:17:16;;;;;;;0.50;0.50;;;6.30;99.90;;;;;;5138774;27;20031;-78
2023/12/30 02:19:42;;;;;;;0.47;0.47;;;6.30;99.90;;;;;;5131434;27;20061;-81
2023/12/30 02:22:07;;;;;;;0.50;0.50;;;6.30;99.90;;;;;;5114590;27;20399;-79
2023/12/30 02:24:33;;;;;;;0.50;0.50;;;6.30;99.90;;;;;;5131191;27;20522;-80
2023/12/30 02:26:59;;;;;;;2.05;0.85;;;6.30;99.90;;;;;;5130427;27;20039;-81
2023/12/30 02:29:25;;;;;;;0.40;0.40;;;6.30;99.90;;;;;;5136867;27;20785;-79
2023/12/30 02:31:51;;;;;;;0.70;0.70;;;6.40;99.90;;;;;;5135732;27;20096;-78
2023/12/30 02:34:18;;;;;;;0.50;0.50;;;6.50;99.90;;;;;;5116834;27;20039;-77
2023/12/30 02:36:44;;;;;;;0.40;0.40;;;6.50;99.90;;;;;;5135339;27;20079;-78
2023/12/30 02:39:11;;;;;;;0.57;0.57;;;6.60;99.90;;;;;;5143085;27;20444;-81
2023/12/30 02:41:36;;;;;;;0.40;0.40;;;6.50;99.90;;;;;;5136004;27;20038;-80
2023/12/30 02:44:03;;;;;;;0.50;0.50;;;6.60;99.90;;;;;;5101518;27;20099;-79
2023/12/30 02:46:29;;;;;;;0.73;0.73;;;6.60;99.90;;;;;;5135184;27;20039;-80
2023/12/30 02:48:56;;;;;;;;;;;6.60;99.90;;;;;;5115279;27;20372;-77
2023/12/30 02:51:22;;;;;;;0.50;0.50;;;6.60;99.90;;;;;;5119060;27;19922;-78
2023/12/30 02:53:48;;;;;;;0.50;0.50;;;6.70;99.90;;;;;;5136712;27;20039;-80
2023/12/30 02:56:21;;;;;;;0.50;0.50;;;6.60;99.90;;;;;;5136432;27;20114;-78
2023/12/30 02:58:56;;;;;;;0.52;0.52;;;6.60;99.90;;;;;;5131095;27;20049;-77
2023/12/30 03:01:27;;;;;;;0.45;0.45;;;6.90;99.90;;;;;;5127400;27;20122;-81
2023/12/30 03:03:54;;;;;;;0.40;0.40;;;6.70;99.90;;;;;;5117392;27;20047;-76
2023/12/30 03:06:23;;;;;;;0.50;0.50;;;6.70;99.90;;;;;;5128582;27;20084;-80
2023/12/30 03:08:49;;;;;;;0.55;0.55;;;6.80;99.90;;;;;;5133954;27;20039;-79
2023/12/30 03:11:15;;;;;;;;;;;6.70;99.90;;;;;;5138543;27;20049;-80
2023/12/30 03:13:41;;;;;;;0.50;0.50;;;6.90;99.90;;;;;;5121808;27;20001;-77
2023/12/30 03:16:07;;;;;;;0.60;0.60;;;6.80;99.90;;;;;;5138921;27;20122;-76
2023/12/30 03:18:33;;;;;;;0.52;0.52;;;6.90;99.90;;;;;;5139486;27;20448;-80
2023/12/30 03:20:59;;;;;;;0.57;0.57;;;6.90;99.90;;;;;;5118426;27;20074;-77
2023/12/30 03:23:24;;;;;;;0.50;0.50;;;6.90;99.90;;;;;;5124251;27;20142;-80
2023/12/30 03:25:50;;;;;;;0.60;0.60;;;6.90;99.90;;;;;;5134362;27;20035;-81
2023/12/30 03:28:17;;;;;;;;;;;6.90;99.90;;;;;;5139846;27;20055;-77
2023/12/30 03:30:43;;;;;;;0.50;0.50;;;6.90;99.90;;;;;;5134637;27;19919;-78
2023/12/30 03:33:08;;;;;;;0.50;0.50;;;7.00;99.90;;;;;;5138313;27;20051;-77
2023/12/30 03:35:35;;;;;;;0.77;0.77;;;7.10;99.90;;;;;;5117784;27;20037;-81
2023/12/30 03:38:01;;;;;;;0.50;0.50;;;6.90;99.90;;;;;;5132896;27;20118;-76
2023/12/30 03:40:26;;;;;;;0.50;0.50;;;7.10;99.90;;;;;;5133167;27;20129;-77
2023/12/30 03:42:52;;;;;;;0.50;0.50;;;7.00;99.90;;;;;;5133755;27;20054;-78
2023/12/30 03:45:18;;;;;;;0.50;0.50;;;6.90;99.90;;;;;;5133253;27;20043;-80
2023/12/30 03:47:43;;;;;;;0.50;0.50;;;6.90;99.90;;;;;;5134210;27;20051;-80
2023/12/30 03:50:09;;;;;;;0.47;0.47;;;7.00;99.90;;;;;;5132785;27;20118;-82
2023/12/30 03:52:35;;;;;;;0.60;0.60;;;6.90;99.90;;;;;;5090022;27;20500;-81
2023/12/30 03:55:01;;;;;;;0.85;0.85;;;6.90;99.90;;;;;;5119429;27;20039;-78
2023/12/30 03:57:26;;;;;;;0.60;0.60;;;6.90;99.90;;;;;;5134969;27;20051;-78
2023/12/30 03:59:52;;;;;;;0.47;0.47;;;7.00;99.90;;;;;;5135467;27;20043;-76
2023/12/30 04:02:20;;;;;;;0.43;0.43;;;7.00;99.90;;;;;;5113703;27;20047;-78
2023/12/30 04:04:47;;;;;;;0.40;0.40;;;6.90;99.90;;;;;;5115916;27;20047;-81
2023/12/30 04:07:13;;;;;;;0.50;0.50;;;6.90;99.90;;;;;;5130480;27;20065;-78
2023/12/30 04:09:39;;;;;;;;;;;6.90;99.90;;;;;;5130256;27;20390;-78
2023/12/30 04:12:05;;;;;;;0.50;0.50;;;6.90;99.90;;;;;;5129936;27;19919;-78
2023/12/30 04:14:31;;;;;;;0.50;0.50;;;6.90;99.90;;;;;;5131333;27;20039;-78
2023/12/30 04:16:57;;;;;;;0.52;0.52;;;6.90;99.90;;;;;;5100258;27;20377;-80
2023/12/30 04:19:24;;;;;;;0.73;0.73;;;6.60;99.90;;;;;;5112812;27;20042;-79
2023/12/30 04:21:50;;;;;;;1.30;1.30;;;6.80;99.90;;;;;;5130019;27;20095;-78
2023/12/30 04:24:17;;;;;;;0.80;0.80;;;6.70;99.90;;;;;;5119412;27;20045;-78
2023/12/30 04:26:43;;;;;;;0.55;0.55;;;6.60;99.90;;;;;;5133555;27;20047;-78
2023/12/30 04:29:12;;;;;;;0.50;0.50;;;6.40;99.90;;;;;;5132186;27;20055;-76
2023/12/30 04:31:37;;;;;;;0.50;0.50;;;6.60;99.90;;;;;;5115422;27;20084;-77
2023/12/30 04:34:04;;;;;;;0.55;0.55;;;6.60;99.90;;;;;;5133404;27;20144;-78
2023/12/30 04:36:30;;;;;;;4.43;0.68;;;6.70;99.90;;;;;;5134645;27;20047;-77
2023/12/30 04:38:55;;;;;;;0.70;0.70;;;6.80;99.90;;;;;;5117861;27;20049;-79
2023/12/30 04:41:21;;;;;;;0.43;0.43;;;6.90;99.90;;;;;;5132820;27;20079;-79
2023/12/30 04:43:47;;;;;;;0.60;0.60;;;6.80;99.90;;;;;;5130632;27;20031;-78
2023/12/30 04:46:13;;;;;;;1.98;0.55;;;6.20;99.90;;;;;;5116438;27;20099;-78
2023/12/30 04:48:39;;;;;;;0.70;0.70;;;6.80;99.90;;;;;;5127621;27;20034;-77
2023/12/30 04:51:04;;;;;;;0.70;0.70;;;6.80;99.90;;;;;;5114087;27;20553;-78
2023/12/30 04:53:31;;;;;;;0.50;0.50;;;6.90;99.90;;;;;;5115499;27;20057;-76
2023/12/30 04:55:56;;;;;;;0.50;0.50;;;7.00;99.90;;;;;;5117637;28;20066;-77
2023/12/30 04:58:22;;;;;;;0.60;0.60;;;6.90;99.90;;;;;;5133487;27;20072;-77
2023/12/30 05:00:48;;;;;;;0.50;0.50;;;7.10;99.90;;;;;;5134433;27;20039;-81
2023/12/30 05:03:16;;;;;;;0.40;0.40;;;6.90;99.90;;;;;;5135078;27;20043;-78
2023/12/30 05:05:42;;;;;;;0.60;0.60;;;6.90;99.90;;;;;;5139833;27;20046;-78
2023/12/30 05:08:08;;;;;;;0.60;0.60;;;6.80;99.90;;;;;;5128839;27;20043;-77
2023/12/30 05:10:34;;;;;;;;;;;6.90;99.90;;;;;;5135272;28;20071;-77
2023/12/30 05:13:00;;;;;;;0.55;0.55;;;6.90;99.90;;;;;;5138295;27;19927;-80
2023/12/30 05:15:26;;;;;;;0.52;0.52;;;6.90;99.90;;;;;;5132919;28;20110;-77
2023/12/30 05:17:53;;;;;;;0.43;0.43;;;6.90;99.90;;;;;;5135355;27;20139;-77
2023/12/30 05:20:19;;;;;;;0.45;0.45;;;6.90;99.90;;;;;;5122006;28;20034;-80
2023/12/30 05:22:46;;;;;;;0.60;0.60;;;6.90;99.90;;;;;;5136422;27;20089;-81
2023/12/30 05:25:11;;;;;;;;;;;6.90;99.90;;;;;;5137676;27;20107;-79
2023/12/30 05:27:38;;;;;;;0.70;0.70;;;6.80;99.90;;;;;;5133590;27;19924;-78
2023/12/30 05:30:07;;;;;;;3.03;1.00;;;6.80;99.90;;;;;;5134704;27;20051;-77
2023/12/30 05:32:33;;;;;;;0.50;0.50;;;6.80;99.90;;;;;;5136777;27;20389;-79
2023/12/30 05:34:59;;;;;;;0.70;0.70;;;6.90;99.90;;;;;;5113255;27;20092;-77
2023/12/30 05:37:25;;;;;;;0.50;0.50;;;6.80;99.90;;;;;;5143601;27;20043;-79
2023/12/30 05:39:51;;;;;;;0.57;0.57;;;6.80;99.90;;;;;;5120810;27;20417;-76
2023/12/30 05:42:16;;;;;;;0.60;0.60;;;6.80;99.90;;;;;;5134231;27;20442;-79
2023/12/30 05:44:42;;;;;;;0.50;0.50;;;6.70;99.90;;;;;;5135426;27;20039;-79
2023/12/30 05:47:08;;;;;;;0.60;0.60;;;6.80;99.90;;;;;;5132806;27;20031;-77
2023/12/30 05:49:35;;;;;;;0.40;0.40;;;6.70;99.90;;;;;;5134665;27;20035;-78
2023/12/30 05:52:01;;;;;;;1.15;1.15;;;6.60;99.90;;;;;;5142743;27;20065;-78
2023/12/30 05:54:28;;;;;;;0.52;0.52;;;6.70;99.90;;;;;;5119397;27;20126;-80
2023/12/30 05:56:54;;;;;;;0.50;0.50;;;6.70;99.90;;;;;;5118953;27;20130;-80
2023/12/30 05:59:20;;;;;;;0.52;0.52;;;7.60;99.90;;;;;;5099746;27;20746;-78
2023/12/30 06:01:46;;;;;;;0.77;0.77;;;6.70;99.90;;;;;;5135492;27;20039;-81
2023/12/30 06:04:13;;;;;;;0.63;0.63;;;6.60;99.90;;;;;;5134557;27;20039;-77
2023/12/30 06:06:40;;;;;;;11.90;1.00;;;6.70;99.90;;;;;;5135393;27;20285;-80
2023/12/30 06:09:05;;;;;;;;;;;6.50;99.90;;;;;;5134087;27;20126;-78
2023/12/30 06:11:32;;;;;;;0.77;0.77;;;6.70;99.90;;;;;;5108399;27;20030;-79
2023/12/30 06:13:57;;;;;;;;;;;6.80;99.90;;;;;;5135917;27;20043;-76
2023/12/30 06:16:23;;;;;;;0.57;0.57;;;6.80;99.90;;;;;;5141880;27;19923;-80
2023/12/30 06:18:48;;;;;;;0.57;0.57;;;6.80;99.90;;;;;;5118142;27;20069;-80
2023/12/30 06:21:14;;;;;;;0.63;0.63;;;6.80;99.90;;;;;;5146796;27;20027;-77
2023/12/30 06:23:40;;;;;;;0.60;0.60;;;7.10;99.90;;;;;;5135017;27;20437;-81
2023/12/30 06:26:05;;;;;;;0.50;0.50;;;6.80;99.90;;;;;;5132343;27;20070;-79
2023/12/30 06:28:31;;;;;;;0.60;0.60;;;6.70;99.90;;;;;;5130607;27;20061;-78
2023/12/30 06:30:57;;;;;;;0.50;0.50;;;6.60;99.90;;;;;;5132650;27;20047;-76
2023/12/30 06:33:23;;;;;;;0.50;0.50;;;6.60;99.90;;;;;;5133287;27;20547;-79
2023/12/30 06:35:49;;;;;;;0.60;0.60;;;6.60;99.90;;;;;;5132308;27;20384;-79
2023/12/30 06:38:15;;;;;;;;;;;6.60;99.90;;;;;;5137017;27;20039;-79
2023/12/30 06:40:41;;;;;;;0.50;0.50;;;6.70;99.90;;;;;;5133220;27;20476;-78
2023/12/30 06:43:07;;;;;;;;;;;6.70;99.90;;;;;;5131683;27;20043;-79
2023/12/30 06:45:33;;;;;;;0.60;0.60;;;6.60;99.90;;;;;;5134652;27;20002;-79
2023/12/30 06:47:59;;;;;;;0.50;0.50;;;6.60;99.90;;;;;;5134380;27;20545;-77
2023/12/30 06:50:24;;;;;;;0.88;0.88;;;6.90;99.90;;;;;;5134662;27;20050;-76
2023/12/30 06:52:50;;;;;;;0.40;0.40;;;6.70;99.90;;;;;;5132163;27;20047;-80
2023/12/30 06:55:16;;;;;;;0.60;0.60;;;6.70;99.90;;;;;;5132501;27;20085;-78
2023/12/30 06:57:42;;;;;;;0.60;0.60;;;6.70;99.90;;;;;;5116607;27;20074;-79
2023/12/30 07:00:08;;;;;;;0.50;0.50;;;6.70;99.90;;;;;;5137519;27;20039;-79
2023/12/30 07:02:34;;;;;;;0.50;0.50;;;6.70;99.90;;;;;;5137444;27;20035;-76
2023/12/30 07:04:59;;;;;;;;;;;6.90;99.90;;;;;;5131110;27;20370;-80
2023/12/30 07:07:25;;;;;;;0.60;0.60;;;6.60;99.90;;;;;;5129728;27;19920;-80
2023/12/30 07:09:51;;;;;;;0.50;0.50;;;6.60;99.90;;;;;;5129474;27;20450;-77
2023/12/30 07:12:17;;;;;;;0.40;0.40;;;6.60;99.90;;;;;;5135615;27;20094;-77
2023/12/30 07:14:43;;;;;;;0.60;0.60;;;6.60;99.90;;;;;;5099019;27;20039;-81
2023/12/30 07:17:08;;;;;;;0.55;0.55;;;6.80;99.90;;;;;;5131927;27;20384;-80
2023/12/30 07:19:34;;;;;;;3.30;0.90;;;6.50;99.90;;;;;;5112343;27;20047;-77
2023/12/30 07:22:00;;;;;;;0.40;0.40;;;6.60;99.90;;;;;;5130273;27;20476;-78
2023/12/30 07:24:25;;;;;;;0.75;0.75;;;6.50;99.90;;;;;;5130555;27;20046;-80
2023/12/30 07:26:52;;;;;;;0.70;0.70;;;6.50;99.90;;;;;;5119632;27;20138;-79
2023/12/30 07:29:17;;;;;;;0.90;0.90;;;6.40;99.90;;;;;;5133609;27;20047;-77
2023/12/30 07:31:43;;;;;;;0.50;0.50;;;6.60;99.90;;;;;;5113459;27;20766;-77
2023/12/30 07:34:10;;;;;;;0.50;0.50;;;6.40;99.90;;;;;;5133230;27;20465;-80
2023/12/30 07:36:36;;;;;;;0.50;0.50;;;6.40;99.90;;;;;;5132625;27;20384;-78
2023/12/30 07:39:02;;;;;;;0.50;0.50;;;6.50;99.90;;;;;;5132222;27;20046;-79
2023/12/30 07:41:28;;;;;;;0.60;0.60;;;6.40;99.90;;;;;;5130381;27;20158;-77
2023/12/30 07:43:54;;;;;;;0.70;0.70;;;6.40;99.90;;;;;;5129936;27;20559;-80
2023/12/30 07:46:21;;;;;;;0.50;0.50;;;6.40;99.90;;;;;;5130997;27;20088;-80
2023/12/30 07:48:46;;;;;;;0.50;0.50;;;6.30;99.90;;;;;;5128573;27;20121;-78
2023/12/30 07:51:12;;;;;;;0.43;0.43;;;6.40;99.90;;;;;;5126518;27;20126;-80
2023/12/30 07:53:38;;;;;;;0.38;0.38;;;6.40;99.90;;;;;;5128202;27;20074;-82
2023/12/30 07:56:04;;;;;;;0.45;0.45;;;6.40;99.90;;;;;;5112183;27;20147;-79
2023/12/30 07:58:29;;;;;;;0.43;0.43;;;6.40;99.90;;;;;;5112289;27;20512;-79
2023/12/30 08:00:55;;;;;;;0.65;0.65;;;6.30;99.90;;;;;;5126818;27;20044;-78
2023/12/30 08:03:21;;;;;;;0.50;0.50;;;6.40;99.90;;;;;;5073433;27;20055;-78
2023/12/30 08:05:46;;;;;;;0.60;0.60;;;6.50;99.90;;;;;;5112745;27;20034;-76
2023/12/30 08:08:13;;;;;;;0.55;0.55;;;6.40;99.90;;;;;;5126925;27;20038;-79
2023/12/30 08:10:39;;;;;;;0.52;0.52;;;6.40;99.90;;;;;;5103151;27;20083;-78
2023/12/30 08:13:05;;;;;;;0.50;0.50;;;6.40;99.90;;;;;;5123559;27;20089;-78
2023/12/30 08:15:30;;;;;;;0.60;0.60;;;6.40;99.90;;;;;;5139068;27;20038;-77
2023/12/30 08:17:56;;;;;;;0.50;0.50;;;6.20;99.90;;;;;;5115926;27;20039;-77
2023/12/30 08:20:22;;;;;;;0.50;0.50;;;6.30;99.90;;;;;;5127202;27;20365;-81
2023/12/30 08:22:50;;;;;;;1.70;1.70;;;6.30;99.90;;;;;;5125720;27;20043;-77
2023/12/30 08:25:16;;;;;;;0.60;0.60;;;6.40;99.90;;;;;;5119454;27;20051;-79
2023/12/30 08:27:42;;;;;;;0.70;0.70;;;6.40;99.90;;;;;;5117090;27;20054;-76
2023/12/30 08:30:08;;;;;;;0.50;0.50;;;6.40;99.90;;;;;;5113830;27;20061;-77
2023/12/30 08:32:34;;;;;;;0.75;0.65;;;6.40;99.90;;;;;;5106176;27;20039;-81
2023/12/30 08:35:02;;;;;;;1.95;1.05;;;6.40;99.90;;;;;;5118425;27;20361;-79
2023/12/30 08:37:29;;;;;;;0.45;0.45;;;6.50;99.90;;;;;;5122016;27;20038;-80
2023/12/30 08:39:54;;;;;;;;;;;6.40;99.90;;;;;;5128592;27;20503;-80
2023/12/30 08:42:21;;;;;;;0.40;0.40;;;6.40;99.90;;;;;;5108320;27;19926;-82
2023/12/30 08:44:47;;;;;;;0.40;0.40;;;6.40;99.90;;;;;;5120992;27;20479;-81
2023/12/30 08:47:15;;;;;;;0.60;0.60;;;6.40;99.90;;;;;;5124876;27;20074;-79
2023/12/30 08:49:41;;;;;;;0.68;0.68;;;6.50;99.90;;;;;;5116069;27;20043;-79
2023/12/30 08:52:07;;;;;;;0.80;0.80;;;6.50;99.90;;;;;;5099133;27;20452;-77
2023/12/30 08:54:32;;;;;;;0.50;0.50;;;6.50;99.90;;;;;;5113474;27;20050;-77
2023/12/30 08:56:58;;;;;;;0.60;0.60;;;6.40;99.90;;;;;;5123787;27;20047;-78
2023/12/30 08:59:24;;;;;;;0.52;0.52;;;6.50;99.90;;;;;;5123875;27;20074;-81
2023/12/30 09:01:51;;;;;;;0.50;0.50;;;6.50;99.90;;;;;;5113572;27;20043;-80
2023/12/30 09:04:18;;;;;;;0.70;0.70;;;6.50;99.90;;;;;;5097985;28;20047;-80
2023/12/30 09:06:44;;;;;;;0.50;0.50;;;6.50;99.90;;;;;;5117064;27;20054;-79
2023/12/30 09:09:10;;;;;;;0.60;0.60;;;6.50;99.90;;;;;;5120639;27;20399;-76
2023/12/30 09:11:38;;;;;;;0.50;0.50;;;6.50;99.90;;;;;;5121900;28;20126;-79
2023/12/30 09:14:07;;;;;;;0.47;0.47;;;6.50;99.90;;;;;;5106954;27;20548;-80
2023/12/30 09:16:33;;;;;;;0.60;0.60;;;6.50;99.90;;;;;;5120712;27;20103;-79
2023/12/30 09:18:59;;;;;;;0.52;0.52;;;6.40;99.90;;;;;;5121326;27;20426;-80
2023/12/30 09:21:25;;;;;;;0.63;0.63;;;6.40;99.90;;;;;;5109710;28;20097;-79
2023/12/30 09:23:50;;;;;;;0.50;0.50;;;6.40;99.90;;;;;;5118310;27;20114;-80
2023/12/30 09:26:17;;;;;;;0.75;0.75;;;6.40;99.90;;;;;;5122289;28;20102;-76
2023/12/30 09:28:43;;;;;;;0.57;0.57;;;6.50;99.90;;;;;;5126000;27;20062;-76
2023/12/30 09:31:09;;;;;;;;;;;6.50;99.90;;;;;;5126609;27;20039;-80
2023/12/30 09:33:34;;;;;;;0.50;0.50;;;6.50;99.90;;;;;;5110094;27;20394;-77
2023/12/30 09:36:00;;;;;;;0.50;0.50;;;6.60;99.90;;;;;;5141617;27;20068;-76
2023/12/30 09:38:26;;;;;;;34.25;1.70;;;6.50;99.90;;;;;;5138943;27;20363;-78
2023/12/30 09:40:53;;;;;;;0.50;0.50;;;6.60;99.90;;;;;;5117756;28;20453;-79
2023/12/30 09:43:28;;;;;;;0.50;0.50;;;6.60;99.90;;;;;;5147275;27;20047;-80
2023/12/30 09:45:55;;;;;;;0.50;0.50;;;6.60;99.90;;;;;;5142566;27;20542;-79
2023/12/30 09:48:26;;;;;;;0.40;0.40;;;6.60;99.90;;;;;;5136803;27;20065;-80
2023/12/30 09:50:56;;;;;;;0.70;0.70;;;6.70;99.90;;;;;;5136139;27;20146;-80
2023/12/30 09:53:25;;;;;;;0.40;0.40;;;6.70;99.90;;;;;;5141243;27;20054;-78
2023/12/30 09:55:51;;;;;;;0.50;0.50;;;6.70;99.90;;;;;;5127382;27;20501;-80
2023/12/30 09:58:18;;;;;;;0.47;0.47;;;6.80;99.90;;;;;;5100200;27;20525;-79
2023/12/30 10:00:43;;;;;;;0.60;0.60;;;6.80;99.90;;;;;;5138650;27;20087;-82
2023/12/30 10:03:10;;;;;;;0.43;0.43;;;6.90;99.90;;;;;;5116003;27;20050;-80
2023/12/30 10:05:36;;;;;;;0.50;0.50;;;6.90;99.90;;;;;;5111513;27;20122;-80
2023/12/30 10:08:06;;;;;;;0.30;0.30;;;6.90;99.90;;;;;;5129865;27;20139;-76
2023/12/30 10:10:51;;;;;;;0.40;0.40;;;6.90;99.90;;;;;;5133598;27;20035;-78
2023/12/30 10:13:21;;;;;;;0.60;0.60;;;7.00;99.90;;;;;;5136385;27;20519;-79
2023/12/30 10:15:47;;;;;;;0.60;0.60;;;7.00;99.90;;;;;;5130807;27;20039;-78
2023/12/30 10:18:15;;;;;;;0.50;0.50;;;7.10;99.90;;;;;;5118174;27;20091;-78
2023/12/30 10:20:42;;;;;;;0.88;0.60;;;7.10;99.90;;;;;;5120223;27;20383;-78
2023/12/30 10:23:08;;;;;;;0.60;0.60;;;7.10;99.90;;;;;;5133384;27;20430;-78
2023/12/30 10:25:34;;;;;;;;;;;7.20;99.90;;;;;;5132045;27;20081;-79
2023/12/30 10:28:01;;;;;;;0.60;0.60;;;7.20;99.90;;;;;;5115497;27;20020;-79
2023/12/30 10:30:30;;;;;;;0.40;0.40;;;7.20;99.90;;;;;;5133050;27;20484;-80
2023/12/30 10:33:10;;;;;;;0.40;0.40;;;7.20;99.90;;;;;;5140159;27;20085;-79
2023/12/30 10:35:38;;;;;;;0.63;0.63;;;7.20;99.90;;;;;;5135586;27;20157;-79
2023/12/30 10:38:04;;;;;;;0.40;0.40;;;7.20;99.90;;;;;;5133315;27;20088;-78
2023/12/30 10:40:31;;;;;;;0.43;0.43;;;7.20;99.90;;;;;;5133573;27;20035;-80
2023/12/30 10:42:57;;;;;;;0.50;0.50;;;7.30;99.90;;;;;;5132995;27;20070;-77
2023/12/30 10:45:24;;;;;;;0.50;0.50;;;7.20;99.90;;;;;;5133130;27;20089;-81
2023/12/30 10:47:50;;;;;;;0.65;0.65;;;7.30;99.90;;;;;;5133784;27;20484;-80
2023/12/30 10:50:16;;;;;;;0.52;0.52;;;7.30;99.90;;;;;;5133299;27;20085;-78
2023/12/30 10:52:50;;;;;;;0.70;0.70;;;7.30;99.90;;;;;;5134370;27;20074;-80
2023/12/30 10:55:17;;;;;;;0.50;0.50;;;7.30;99.90;;;;;;5132117;27;20438;-77
2023/12/30 10:57:56;;;;;;;0.40;0.40;;;7.30;99.90;;;;;;5140405;27;20069;-78
2023/12/30 11:00:24;;;;;;;0.45;0.45;;;7.40;99.90;;;;;;5134372;27;20062;-78
2023/12/30 11:02:51;;;;;;;0.50;0.50;;;7.40;99.90;;;;;;5099519;27;20053;-80
2023/12/30 11:05:27;;;;;;;0.40;0.40;;;7.40;99.90;;;;;;5114882;27;20087;-77
2023/12/30 11:07:53;;;;;;;0.68;0.68;;;7.40;99.90;;;;;;5121128;27;20478;-77
2023/12/30 11:10:23;;;;;;;0.50;0.50;;;7.50;99.90;;;;;;5131875;27;20084;-77
2023/12/30 11:12:50;;;;;;;0.50;0.50;;;7.50;99.90;;;;;;5132133;27;20094;-78
2023/12/30 11:15:30;;;;;;;0.40;0.40;;;7.50;99.90;;;;;;5132797;27;20043;-81
2023/12/30 11:17:57;;;;;;;0.50;0.50;;;7.60;99.90;;;;;;5131372;27;20069;-77
2023/12/30 11:20:29;;;;;;;0.50;0.50;;;7.60;99.90;;;;;;5131505;27;20101;-80
2023/12/30 11:23:01;;;;;;;0.60;0.60;;;7.60;99.90;;;;;;5132498;27;20043;-80
2023/12/30 11:25:45;;;;;;;1.05;1.05;;;7.60;99.90;;;;;;5131179;27;20078;-78
2023/12/30 11:28:17;;;;;;;0.60;0.60;;;7.60;99.90;;;;;;5133942;27;20055;-80
2023/12/30 11:30:44;;;;;;;0.47;0.47;;;7.60;99.90;;;;;;5131938;27;20043;-79
2023/12/30 11:33:11;;;;;;;0.70;0.70;;;7.60;99.90;;;;;;5138535;27;20043;-79
2023/12/30 11:35:38;;;;;;;0.40;0.40;;;7.60;99.90;;;;;;5135792;27;20057;-78
2023/12/30 11:38:07;;;;;;;0.50;0.50;;;7.70;99.90;;;;;;5132032;27;20051;-78
2023/12/30 11:40:39;;;;;;;0.57;0.57;;;7.70;99.90;;;;;;5132242;27;20050;-80
2023/12/30 11:43:06;;;;;;;0.30;0.30;;;7.60;99.90;;;;;;5131359;27;20392;-80
2023/12/30 11:45:33;;;;;;;0.40;0.40;;;7.60;99.90;;;;;;5114142;27;20145;-79
2023/12/30 11:47:59;;;;;;;0.50;0.50;;;7.60;99.90;;;;;;5127370;27;20548;-78
2023/12/30 11:50:24;;;;;;;0.68;0.68;;;7.60;99.90;;;;;;5132873;27;20051;-77
2023/12/30 11:52:50;;;;;;;0.50;0.50;;;7.60;99.90;;;;;;5136196;27;20440;-80
2023/12/30 11:55:16;;;;;;;0.50;0.50;;;7.70;99.90;;;;;;5144282;27;20035;-78
2023/12/30 11:57:44;;;;;;;;;;;7.70;99.90;;;;;;5134897;27;20065;-77
2023/12/30 12:00:10;;;;;;;0.38;0.38;;;7.80;99.90;;;;;;5136940;27;20444;-80
2023/12/30 12:02:36;;;;;;;0.40;0.40;;;7.90;99.90;;;;;;5132175;27;20039;-80
2023/12/30 12:05:02;;;;;;;0.30;0.30;;;8.10;99.90;;;;;;5131115;27;20065;-81
2023/12/30 12:07:27;;;;;;;0.47;0.47;;;8.20;99.90;;;;;;5131966;27;20042;-77
2023/12/30 12:09:53;;;;;;;0.45;0.45;;;8.20;99.90;;;;;;5133675;27;20118;-81
2023/12/30 12:12:23;;;;;;;0.40;0.40;;;8.20;99.90;;;;;;5133348;27;20035;-79
2023/12/30 12:14:50;;;;;;;0.40;0.40;;;8.10;99.90;;;;;;5115515;27;20377;-77
2023/12/30 12:17:17;;;;;;;0.50;0.50;;;8.00;99.90;;;;;;5131033;27;20399;-78
2023/12/30 12:19:45;;;;;;;0.50;0.50;;;7.90;99.90;;;;;;5131619;27;20068;-77
2023/12/30 12:22:15;;;;;;;0.35;0.35;;;7.80;99.90;;;;;;5115193;27;20084;-78
2023/12/30 12:24:42;;;;;;;0.50;0.50;;;7.70;99.90;;;;;;5138559;27;20039;-79
2023/12/30 12:27:07;;;;;;;0.77;0.77;;;7.60;99.90;;;;;;5128895;27;20104;-79
2023/12/30 12:29:44;;;;;;;0.50;0.50;;;7.50;99.90;;;;;;5134714;27;20043;-80
2023/12/30 12:32:13;;;;;;;0.45;0.45;;;7.50;99.90;;;;;;5130695;27;20088;-78
2023/12/30 12:34:41;;;;;;;0.55;0.55;;;7.50;99.90;;;;;;5118113;27;20041;-79
2023/12/30 12:37:08;;;;;;;3.95;2.38;;;7.40;99.90;;;;;;5113235;27;20535;-80
2023/12/30 12:39:34;;;;;;;0.50;0.50;;;7.30;99.90;;;;;;5131069;27;20057;-79
2023/12/30 12:42:00;;;;;;;0.43;0.43;;;7.40;99.90;;;;;;5130902;27;20484;-78
2023/12/30 12:44:25;;;;;;;0.43;0.43;;;7.40;99.90;;;;;;5131729;27;20061;-79
2023/12/30 12:46:51;;;;;;;0.43;0.43;;;7.40;99.90;;;;;;5113956;27;20101;-78
2023/12/30 12:49:19;;;;;;;0.40;0.40;;;7.40;99.90;;;;;;5130224;27;20076;-80
2023/12/30 12:51:45;;;;;;;0.40;0.40;;;7.40;99.90;;;;;;5135021;27;20065;-80
2023/12/30 12:54:11;;;;;;;0.40;0.40;;;7.50;99.90;;;;;;5116818;27;20100;-79
2023/12/30 12:56:37;;;;;;;0.50;0.50;;;7.40;99.90;;;;;;5113553;28;20039;-79
2023/12/30 12:59:03;;;;;;;0.57;0.57;;;7.50;99.90;;;;;;5114393;27;20113;-78